Atar, Mauritania
Current Conditions -  °F | °C
As of 12:30 PM on Wednesday 26 Nov 2014 (Local Time) from GQPA Reporting Station
Clear Clear  
Wind Chill: 75°   Ceiling: Unl
Heat Index: 75°   Visibility: 5mi
Dew Point: 50°   Wind: 9mph
Humidity: 41%   Direction: 80°E
Pressure: 30.06"   Gusts: NA
Location:  20.51°N, 13.05°W
Report Text: GQPA 261230Z 08008KT 8000 NSC 24/10 Q1018
Loading
Personal Weather Stations






























Interactive Weather Map New forecast layout! Learn more

10-Day Weather Forecast

Advertisements
Track Severe Weather on mobile